»·PEaware :: N522PM KBUR-KSBA

N522PM :: KBUR-KSBA

FLIGHT INFORMATION

Flight Status: Arrived
Operator: Privately registered:
United States
More flights under this callsign
Pilot: Bruce B. (6887)
Aircraft: BEECH AIRCRAFT BONANZA
(BE36)
More flights by this aircraft type
Origin: KBUR Bob Hope-Burbank
United States
Destination: KSBA Santa Barbara Mun
United States
More flights between these airports :: More routes between these airports
Route: DIRECT
File this flight plan on PilotEdge
Remarks:
Altitude:
(Current/Filed)
6,500ft
Speed:
(Current/Filed)
160kts
Departed: 28-Jan-19 05:35 PM
Arrived: 28-Jan-19 06:07 PM
Distance/Time
Traveled:
74nm/0:32
Distance/Time
To Go:
Arrived

Flight Plot

Page will automatically refresh every two minutes.

Flight plan parsing failed; only flown route is shown


Map Options




Map Legend


Flown Route
Filed Route
Departure Airport
Arrival Airport
Navaid (VOR, NDB)
Fix

Horizontal Profiles

Position Reports

Time Latitude Longitude Heading Altitude Ground
Speed
28-Jan-19 17:17 34.202555 -118.360650 254 725ft 0kts
28-Jan-19 17:18 34.202555 -118.360651 254 725ft 0kts
28-Jan-19 17:19 34.202682 -118.360089 254 725ft 0kts
28-Jan-19 17:20 34.202682 -118.360090 254 725ft 0kts
28-Jan-19 17:21 34.202682 -118.360091 254 725ft 0kts
28-Jan-19 17:22 34.202682 -118.360092 254 725ft 0kts
28-Jan-19 17:23 34.202682 -118.360093 254 725ft 0kts
28-Jan-19 17:24 34.202681 -118.360094 254 725ft 0kts
28-Jan-19 17:25 34.202681 -118.360094 254 725ft 0kts
28-Jan-19 17:26 34.202725 -118.360164 353 725ft 1kts
28-Jan-19 17:27 34.203795 -118.359123 347 725ft 19kts
28-Jan-19 17:28 34.211697 -118.361289 342 725ft 0kts
28-Jan-19 17:29 34.211957 -118.361097 78 725ft 0kts
28-Jan-19 17:30 34.211957 -118.361095 78 725ft 0kts
28-Jan-19 17:31 34.211957 -118.361093 78 725ft 0kts
28-Jan-19 17:32 34.211958 -118.361091 78 725ft 0kts
28-Jan-19 17:33 34.211258 -118.360134 164 725ft 26kts
28-Jan-19 17:34 34.190728 -118.347012 86 1534ft 112kts
28-Jan-19 17:35 34.212183 -118.357896 307 2652ft 116kts
28-Jan-19 17:36 34.225120 -118.393822 268 3684ft 119kts
28-Jan-19 17:37 34.224541 -118.434806 274 4748ft 109kts
28-Jan-19 17:38 34.221300 -118.474815 258 5514ft 124kts
28-Jan-19 17:39 34.226990 -118.513557 273 6412ft 120kts
28-Jan-19 17:40 34.232810 -118.561078 281 6517ft 161kts
28-Jan-19 17:41 34.241578 -118.616562 281 6510ft 170kts
28-Jan-19 17:43 34.250419 -118.673179 281 6518ft 171kts
28-Jan-19 17:44 34.259218 -118.729977 280 6512ft 171kts
28-Jan-19 17:45 34.267991 -118.786670 280 6512ft 171kts
28-Jan-19 17:46 34.276691 -118.843079 280 6518ft 171kts
28-Jan-19 17:47 34.285394 -118.899668 280 6507ft 171kts
28-Jan-19 17:48 34.294064 -118.956157 280 6505ft 171kts
28-Jan-19 17:49 34.302721 -119.012879 280 6504ft 170kts
28-Jan-19 17:50 34.311325 -119.069390 280 6504ft 170kts
28-Jan-19 17:51 34.319865 -119.125686 280 6504ft 170kts
28-Jan-19 17:52 34.328420 -119.182176 280 6503ft 170kts
28-Jan-19 17:53 34.336938 -119.238622 280 6498ft 171kts
28-Jan-19 17:54 34.348004 -119.294687 282 6498ft 170kts
28-Jan-19 17:55 34.358476 -119.350362 282 6500ft 169kts
28-Jan-19 17:56 34.369021 -119.406036 282 6199ft 169kts
28-Jan-19 17:57 34.379647 -119.461627 283 5527ft 169kts
28-Jan-19 17:58 34.389843 -119.517384 284 4853ft 169kts
28-Jan-19 17:59 34.401636 -119.570953 285 4288ft 160kts
28-Jan-19 18:00 34.412869 -119.622554 283 3775ft 157kts
28-Jan-19 18:01 34.420505 -119.674747 278 3261ft 156kts
28-Jan-19 18:02 34.424041 -119.718094 273 2855ft 101kts
28-Jan-19 18:02 34.425944 -119.744599 276 2634ft 91kts
28-Jan-19 18:03 34.428387 -119.775661 271 1591ft 86kts
28-Jan-19 18:05 34.428371 -119.808489 268 527ft 77kts
28-Jan-19 18:06 34.427878 -119.833347 268 49ft 63kts
28-Jan-19 18:06 34.427265 -119.841578 163 14ft 0kts
28-Jan-19 18:07 34.424680 -119.840746 170 14ft 21kts
28-Jan-19 18:08 34.423193 -119.836628 94 14ft 12kts
28-Jan-19 18:09 34.423178 -119.835736 159 14ft 0kts
28-Jan-19 18:10 34.423178 -119.835736 159 14ft 0kts
28-Jan-19 18:11 34.423178 -119.835736 159 14ft 0kts
28-Jan-19 18:12 34.423178 -119.835736 159 14ft 0kts

Navigation Log

Ident Type
Flight plan parsing failed, navigation log unavailable